createdAt,value
2017-09-19T00:01:22.116Z,88.05
2017-09-19T00:03:48.944Z,87.82
2017-09-19T00:06:15.819Z,87.92
2017-09-19T00:08:42.668Z,87.95
2017-09-19T00:11:09.530Z,87.71
2017-09-19T00:13:36.347Z,88.12
2017-09-19T00:16:03.161Z,87.96
2017-09-19T00:18:29.988Z,88.40
2017-09-19T00:20:56.797Z,88.50
2017-09-19T00:23:23.605Z,91.68
2017-09-19T00:25:50.426Z,92.47
2017-09-19T00:28:17.242Z,90.26
2017-09-19T00:30:44.805Z,92.36
2017-09-19T00:33:11.620Z,89.75
2017-09-19T00:35:38.453Z,88.97
2017-09-19T00:38:05.335Z,90.55
2017-09-19T00:40:32.146Z,91.13
2017-09-19T00:42:59.018Z,93.28
2017-09-19T00:45:26.627Z,92.00
2017-09-19T00:47:53.538Z,89.91
2017-09-19T00:50:20.361Z,92.21
2017-09-19T00:52:47.193Z,89.96
2017-09-19T00:55:14.089Z,89.72
2017-09-19T00:57:40.992Z,90.81
2017-09-19T01:00:07.882Z,89.15
2017-09-19T01:02:35.591Z,88.86
2017-09-19T01:05:02.413Z,88.70
2017-09-19T01:07:30.225Z,89.00
2017-09-19T01:09:57.065Z,88.71
2017-09-19T01:12:24.750Z,89.59
2017-09-19T01:14:52.374Z,89.79
2017-09-19T01:17:19.271Z,90.16
2017-09-19T01:19:46.108Z,91.05
2017-09-19T01:22:12.961Z,89.56
2017-09-19T01:24:39.844Z,88.85
2017-09-19T01:27:06.693Z,90.64
2017-09-19T01:29:33.615Z,90.72
2017-09-19T01:32:00.501Z,89.29
2017-09-19T01:34:27.372Z,88.87
2017-09-19T01:36:54.222Z,88.69
2017-09-19T01:39:21.017Z,88.72
2017-09-19T01:41:47.866Z,90.08
2017-09-19T01:44:14.717Z,90.51
2017-09-19T01:46:41.513Z,90.73
2017-09-19T01:49:09.144Z,90.71
2017-09-19T01:51:35.957Z,89.90
2017-09-19T01:54:03.524Z,89.36
2017-09-19T01:56:31.091Z,91.36
2017-09-19T01:58:57.893Z,91.04
2017-09-19T02:01:24.706Z,89.20
2017-09-19T02:03:51.555Z,90.04
2017-09-19T02:06:18.381Z,89.90
2017-09-19T02:08:45.250Z,92.05
2017-09-19T02:11:12.119Z,90.69
2017-09-19T02:13:38.958Z,90.01
2017-09-19T02:16:05.814Z,90.15
2017-09-19T02:18:33.414Z,90.33
2017-09-19T02:21:00.236Z,91.47
2017-09-19T02:23:27.818Z,90.27
2017-09-19T02:25:55.411Z,90.01
2017-09-19T02:28:22.240Z,91.35
2017-09-19T02:30:49.073Z,90.53
2017-09-19T02:33:15.934Z,89.64
2017-09-19T02:35:42.766Z,91.45
2017-09-19T02:38:09.630Z,89.85
2017-09-19T02:40:36.463Z,89.80
2017-09-19T02:43:04.073Z,89.70
2017-09-19T02:45:30.940Z,90.12
2017-09-19T02:47:58.531Z,91.04
2017-09-19T02:50:25.369Z,91.59
2017-09-19T02:52:52.197Z,90.75
2017-09-19T02:55:19.777Z,91.74
2017-09-19T02:57:47.382Z,91.62
2017-09-19T03:00:14.218Z,91.23
2017-09-19T03:02:41.785Z,90.26
2017-09-19T03:05:08.616Z,92.33
2017-09-19T03:07:35.489Z,91.37
2017-09-19T03:10:02.392Z,89.92
2017-09-19T03:12:29.258Z,90.71
2017-09-19T03:14:56.141Z,89.53
2017-09-19T03:17:22.963Z,90.07
2017-09-19T03:19:50.538Z,89.25
2017-09-19T03:22:18.178Z,89.31
2017-09-19T03:24:45.005Z,89.60
2017-09-19T03:27:11.889Z,91.41
2017-09-19T03:29:38.742Z,91.09
2017-09-19T03:32:05.612Z,90.86
2017-09-19T03:34:32.436Z,89.79
2017-09-19T03:36:59.282Z,89.68
2017-09-19T03:39:26.879Z,89.02
2017-09-19T03:41:53.716Z,89.22
2017-09-19T03:44:20.542Z,89.23
2017-09-19T03:46:47.379Z,89.43
2017-09-19T03:49:14.222Z,89.43
2017-09-19T03:51:41.797Z,88.95
2017-09-19T03:54:09.329Z,88.87
2017-09-19T03:56:36.159Z,89.45
2017-09-19T03:59:03.024Z,88.57
2017-09-19T04:01:30.727Z,88.68
2017-09-19T04:03:57.554Z,89.31
2017-09-19T04:06:24.400Z,90.63
2017-09-19T04:08:52.033Z,91.62
2017-09-19T04:11:18.918Z,90.60
2017-09-19T04:13:45.764Z,91.43
2017-09-19T04:16:12.616Z,91.93
2017-09-19T04:18:39.522Z,91.96
2017-09-19T04:21:07.096Z,89.24
2017-09-19T04:23:33.966Z,88.87
2017-09-19T04:26:00.875Z,88.56
2017-09-19T04:28:27.816Z,89.91
2017-09-19T04:30:54.723Z,91.36
2017-09-19T04:33:21.650Z,90.86
2017-09-19T04:35:48.533Z,90.29
2017-09-19T04:38:15.356Z,89.76
2017-09-19T04:40:42.244Z,88.97
2017-09-19T04:43:09.099Z,89.48
2017-09-19T04:45:36.018Z,89.68
2017-09-19T04:48:03.597Z,91.24
2017-09-19T04:50:31.189Z,90.12
2017-09-19T04:52:58.015Z,88.79
2017-09-19T04:55:24.891Z,88.56
2017-09-19T04:57:51.778Z,88.46
2017-09-19T05:00:18.731Z,88.40
2017-09-19T05:02:45.576Z,88.64
2017-09-19T05:05:13.174Z,88.43
2017-09-19T05:07:39.997Z,88.57
2017-09-19T05:10:06.813Z,88.59
2017-09-19T05:12:33.697Z,89.98
2017-09-19T05:15:00.521Z,90.00
2017-09-19T05:17:27.382Z,89.34
2017-09-19T05:19:54.216Z,90.14
2017-09-19T05:22:21.761Z,91.70
2017-09-19T05:24:48.552Z,90.75
2017-09-19T05:27:15.419Z,89.07
2017-09-19T05:29:42.971Z,88.76
2017-09-19T05:32:09.861Z,88.80
2017-09-19T05:34:37.444Z,88.71
2017-09-19T05:37:05.070Z,89.44
2017-09-19T05:39:31.924Z,89.75
2017-09-19T05:41:58.825Z,88.91
2017-09-19T05:44:25.670Z,88.79
2017-09-19T05:46:52.858Z,88.89
2017-09-19T05:49:19.667Z,91.00
2017-09-19T05:51:46.458Z,90.29
2017-09-19T05:54:13.301Z,89.11
2017-09-19T05:56:40.115Z,89.37
2017-09-19T05:59:07.652Z,91.69
2017-09-19T06:01:34.489Z,90.80
2017-09-19T06:04:01.303Z,89.49
2017-09-19T06:06:28.906Z,88.89
2017-09-19T06:09:13.972Z,89.41
2017-09-19T06:11:41.534Z,91.36
2017-09-19T06:14:08.347Z,91.33
2017-09-19T06:16:35.194Z,89.86
2017-09-19T06:19:02.812Z,89.37
2017-09-19T06:21:29.636Z,89.52
2017-09-19T06:23:56.448Z,91.58
2017-09-19T06:26:23.313Z,91.31
2017-09-19T06:28:50.926Z,91.12
2017-09-19T06:31:18.560Z,90.95
2017-09-19T06:33:45.358Z,91.16
2017-09-19T06:36:12.445Z,90.36
2017-09-19T06:38:39.256Z,89.71
2017-09-19T06:41:06.074Z,89.89
2017-09-19T06:43:32.932Z,91.20
2017-09-19T06:45:59.747Z,89.94
2017-09-19T06:48:27.288Z,89.29
2017-09-19T06:50:54.116Z,90.80
2017-09-19T06:53:20.968Z,89.39
2017-09-19T06:55:47.807Z,89.31
2017-09-19T06:58:14.647Z,90.26
2017-09-19T07:00:41.513Z,89.65
2017-09-19T07:03:08.337Z,90.36
2017-09-19T07:05:35.200Z,89.68
2017-09-19T07:08:02.767Z,90.62
2017-09-19T07:10:29.556Z,88.91
2017-09-19T07:12:56.383Z,89.07
2017-09-19T07:15:23.286Z,88.82
2017-09-19T07:17:50.117Z,89.43
2017-09-19T07:20:16.966Z,88.83
2017-09-19T07:22:43.792Z,89.63
2017-09-19T07:25:11.613Z,90.55
2017-09-19T07:27:38.431Z,89.51
2017-09-19T07:30:05.332Z,88.86
2017-09-19T07:32:32.193Z,88.73
2017-09-19T07:34:59.008Z,89.43
2017-09-19T07:37:25.827Z,88.72
2017-09-19T07:39:52.655Z,88.82
2017-09-19T07:42:20.279Z,88.32
2017-09-19T07:44:47.100Z,90.38
2017-09-19T07:47:14.676Z,88.64
2017-09-19T07:49:42.252Z,88.97
2017-09-19T07:52:09.846Z,89.06
2017-09-19T07:54:36.714Z,88.47
2017-09-19T07:57:03.622Z,88.67
2017-09-19T07:59:31.191Z,88.02
2017-09-19T08:01:58.014Z,88.62
2017-09-19T08:04:24.839Z,87.95
2017-09-19T08:06:52.418Z,88.02
2017-09-19T08:09:20.022Z,87.54
2017-09-19T08:11:46.842Z,87.61
2017-09-19T08:14:13.669Z,87.97
2017-09-19T08:16:40.512Z,87.26
2017-09-19T08:19:07.304Z,87.93
2017-09-19T08:21:34.126Z,87.09
2017-09-19T08:24:00.935Z,86.93
2017-09-19T08:26:27.780Z,87.57
2017-09-19T08:28:54.578Z,86.95
2017-09-19T08:31:21.417Z,87.67
2017-09-19T08:33:48.237Z,86.22
2017-09-19T08:36:15.101Z,86.38
2017-09-19T08:38:41.957Z,86.34
2017-09-19T08:41:08.777Z,86.71
2017-09-19T08:43:35.598Z,86.60
2017-09-19T08:46:02.490Z,86.79
2017-09-19T08:48:29.318Z,86.75
2017-09-19T08:50:56.880Z,86.03
2017-09-19T08:53:23.668Z,86.83
2017-09-19T08:55:50.498Z,87.67
2017-09-19T08:58:17.312Z,86.00
2017-09-19T09:00:44.132Z,87.12
2017-09-19T09:03:10.950Z,85.91
2017-09-19T09:05:37.810Z,86.66
2017-09-19T09:08:05.352Z,86.06
2017-09-19T09:10:32.203Z,85.53
2017-09-19T09:12:59.030Z,85.13
2017-09-19T09:15:26.598Z,86.02
2017-09-19T09:17:54.173Z,84.36
2017-09-19T09:20:21.731Z,84.23
2017-09-19T09:22:48.543Z,86.56
2017-09-19T09:25:15.378Z,84.26
2017-09-19T09:27:43.019Z,83.87
2017-09-19T09:30:09.843Z,84.02
2017-09-19T09:32:36.687Z,84.30
2017-09-19T09:35:03.551Z,83.85
2017-09-19T09:37:30.390Z,84.18
2017-09-19T09:39:57.961Z,83.64
2017-09-19T09:42:24.861Z,83.65
2017-09-19T09:44:51.722Z,83.17
2017-09-19T09:47:18.563Z,83.18
2017-09-19T09:49:46.139Z,82.67
2017-09-19T09:52:13.738Z,82.20
2017-09-19T09:54:40.522Z,82.17
2017-09-19T09:57:07.360Z,81.64
2017-09-19T09:59:34.215Z,80.87
2017-09-19T10:02:01.019Z,81.37
2017-09-19T10:04:27.835Z,80.21
2017-09-19T10:06:54.656Z,80.08
2017-09-19T10:09:21.535Z,80.52
2017-09-19T10:11:49.089Z,81.13
2017-09-19T10:14:15.898Z,82.04
2017-09-19T10:16:42.727Z,80.10
2017-09-19T10:19:09.549Z,79.38
2017-09-19T10:21:36.377Z,78.68
2017-09-19T10:24:03.284Z,79.67
2017-09-19T10:26:30.092Z,78.64
2017-09-19T10:28:56.930Z,78.30
2017-09-19T10:31:23.780Z,77.86
2017-09-19T10:33:50.577Z,76.37
2017-09-19T10:36:18.143Z,75.46
2017-09-19T10:38:45.723Z,75.18
2017-09-19T10:41:13.315Z,74.93
2017-09-19T10:43:40.894Z,74.61
2017-09-19T10:46:07.746Z,74.45
2017-09-19T10:48:35.325Z,73.23
2017-09-19T10:51:02.148Z,74.16
2017-09-19T10:53:28.981Z,73.81
2017-09-19T10:55:55.861Z,74.66
2017-09-19T10:58:22.730Z,73.62
2017-09-19T11:00:49.554Z,74.78
2017-09-19T11:03:16.364Z,74.39
2017-09-19T11:05:43.177Z,72.83
2017-09-19T11:08:10.032Z,72.84
2017-09-19T11:10:36.833Z,73.11
2017-09-19T11:13:04.034Z,72.06
2017-09-19T11:15:31.602Z,74.08
2017-09-19T11:17:58.441Z,72.35
2017-09-19T11:20:25.275Z,73.03
2017-09-19T11:22:52.119Z,72.86
2017-09-19T11:25:18.959Z,73.07
2017-09-19T11:27:47.842Z,74.51
2017-09-19T11:30:14.708Z,74.83
2017-09-19T11:32:41.587Z,75.43
2017-09-19T11:35:09.111Z,76.36
2017-09-19T11:37:35.924Z,75.41
2017-09-19T11:40:03.486Z,73.77
2017-09-19T11:42:30.980Z,74.40
2017-09-19T11:44:58.570Z,74.96
2017-09-19T11:47:25.368Z,75.38
2017-09-19T11:49:52.201Z,75.87
2017-09-19T11:52:19.098Z,76.11
2017-09-19T11:54:45.912Z,75.69
2017-09-19T11:57:12.720Z,76.50
2017-09-19T11:59:39.547Z,75.73
2017-09-19T12:02:06.385Z,74.78
2017-09-19T12:04:33.941Z,74.36
2017-09-19T12:07:00.777Z,72.27
2017-09-19T12:09:27.691Z,73.62
2017-09-19T12:11:55.291Z,72.84
2017-09-19T12:14:22.162Z,73.93
2017-09-19T12:16:50.438Z,73.63
2017-09-19T12:19:17.307Z,73.23
2017-09-19T12:21:44.998Z,72.29
2017-09-19T12:24:11.900Z,72.01
2017-09-19T12:26:38.743Z,69.99
2017-09-19T12:29:05.583Z,68.68
2017-09-19T12:31:32.939Z,68.81
2017-09-19T12:34:00.000Z,68.42
2017-09-19T12:36:27.097Z,65.65
2017-09-19T12:38:54.607Z,65.18
2017-09-19T12:41:22.265Z,66.73
2017-09-19T12:43:50.542Z,64.60
2017-09-19T12:46:17.423Z,65.89
2017-09-19T12:48:44.685Z,65.13
2017-09-19T12:51:12.753Z,65.69
2017-09-19T12:53:39.666Z,66.05
2017-09-19T12:56:06.481Z,65.14
2017-09-19T12:58:33.317Z,64.66
2017-09-19T13:01:00.162Z,64.63
2017-09-19T13:03:27.774Z,62.90
2017-09-19T13:05:54.610Z,62.89
2017-09-19T13:08:21.495Z,62.73
2017-09-19T13:10:49.096Z,62.29
2017-09-19T13:13:15.938Z,60.69
2017-09-19T13:15:43.536Z,61.80
2017-09-19T13:18:11.163Z,60.85
2017-09-19T13:20:38.753Z,59.72
2017-09-19T13:23:05.583Z,61.58
2017-09-19T13:25:32.941Z,62.67
2017-09-19T13:28:00.281Z,64.46
2017-09-19T13:30:27.888Z,62.26
2017-09-19T13:33:13.185Z,65.87
2017-09-19T13:35:40.103Z,64.95
2017-09-19T13:38:07.033Z,64.30
2017-09-19T13:40:33.899Z,65.57
2017-09-19T13:43:01.490Z,64.98
2017-09-19T13:45:28.317Z,65.20
2017-09-19T13:47:55.175Z,66.08
2017-09-19T13:50:21.988Z,64.97
2017-09-19T13:52:49.279Z,65.05
2017-09-19T13:55:16.274Z,64.56
2017-09-19T13:57:43.114Z,64.39
2017-09-19T14:00:09.979Z,61.48
2017-09-19T14:02:37.205Z,61.80
2017-09-19T14:05:04.576Z,62.53
2017-09-19T14:07:31.428Z,61.24
2017-09-19T14:09:58.301Z,62.19
2017-09-19T14:12:25.133Z,60.06
2017-09-19T14:14:52.798Z,60.29
2017-09-19T14:17:19.620Z,59.60
2017-09-19T14:19:46.465Z,60.66
2017-09-19T14:22:13.360Z,60.48
2017-09-19T14:24:40.462Z,59.71
2017-09-19T14:27:07.739Z,61.57
2017-09-19T14:29:34.638Z,60.95
2017-09-19T14:32:01.531Z,61.64
2017-09-19T14:34:28.380Z,59.07
2017-09-19T14:36:55.246Z,61.15
2017-09-19T14:39:22.099Z,60.38
2017-09-19T14:41:48.928Z,60.28
2017-09-19T14:44:15.743Z,60.64
2017-09-19T14:46:43.200Z,61.20
2017-09-19T14:49:10.158Z,62.65
2017-09-19T14:51:37.606Z,62.09
2017-09-19T14:54:05.223Z,61.12
2017-09-19T14:56:33.213Z,62.83
2017-09-19T14:59:00.111Z,62.02
2017-09-19T15:01:27.756Z,62.41
2017-09-19T15:03:54.537Z,60.97
2017-09-19T15:06:21.356Z,61.38
2017-09-19T15:08:48.718Z,60.73
2017-09-19T15:11:15.798Z,61.38
2017-09-19T15:13:42.594Z,62.14
2017-09-19T15:16:09.433Z,63.77
2017-09-19T15:18:36.270Z,61.77
2017-09-19T15:21:03.134Z,61.95
2017-09-19T15:23:29.939Z,61.58
2017-09-19T15:25:56.770Z,61.61
2017-09-19T15:28:23.595Z,61.68
2017-09-19T15:30:50.404Z,62.43
2017-09-19T15:33:17.225Z,62.63
2017-09-19T15:35:44.035Z,61.95
2017-09-19T15:38:10.856Z,63.48
2017-09-19T15:40:37.663Z,62.31
2017-09-19T15:43:04.520Z,61.07
2017-09-19T15:45:31.373Z,60.97
2017-09-19T15:47:58.216Z,62.46
2017-09-19T15:50:25.028Z,62.67
2017-09-19T15:52:52.559Z,64.56
2017-09-19T15:55:19.377Z,64.52
2017-09-19T15:57:46.185Z,64.25
2017-09-19T16:00:13.010Z,65.22
2017-09-19T16:02:39.820Z,64.72
2017-09-19T16:05:06.669Z,66.36
2017-09-19T16:07:33.487Z,66.59
2017-09-19T16:10:01.451Z,67.25
2017-09-19T16:12:28.687Z,66.37
2017-09-19T16:14:56.445Z,67.05
2017-09-19T16:17:23.540Z,67.84
2017-09-19T16:19:50.352Z,67.77
2017-09-19T16:22:17.172Z,67.62
2017-09-19T16:24:43.965Z,68.46
2017-09-19T16:27:10.781Z,68.22
2017-09-19T16:29:37.611Z,67.99
2017-09-19T16:32:04.444Z,68.38
2017-09-19T16:34:31.981Z,67.99
2017-09-19T16:36:58.798Z,69.04
2017-09-19T16:39:25.635Z,69.02
2017-09-19T16:41:53.217Z,69.05
2017-09-19T16:44:20.147Z,69.25
2017-09-19T16:46:47.019Z,69.02
2017-09-19T16:49:13.875Z,69.74
2017-09-19T16:51:40.776Z,69.99
2017-09-19T16:54:07.664Z,70.60
2017-09-19T16:56:34.504Z,69.16
2017-09-19T16:59:01.364Z,70.35
2017-09-19T17:01:28.190Z,71.31
2017-09-19T17:03:55.031Z,72.15
2017-09-19T17:06:21.886Z,72.84
2017-09-19T17:08:49.624Z,73.93
2017-09-19T17:11:16.508Z,71.84
2017-09-19T17:13:43.350Z,72.22
2017-09-19T17:16:10.240Z,73.09
2017-09-19T17:18:37.831Z,76.50
2017-09-19T17:21:04.731Z,74.32
2017-09-19T17:23:32.322Z,76.75
2017-09-19T17:25:59.924Z,78.12
2017-09-19T17:28:26.802Z,78.32
2017-09-19T17:30:53.683Z,78.78
2017-09-19T17:33:20.592Z,79.68
2017-09-19T17:35:47.414Z,80.24
2017-09-19T17:38:14.261Z,79.97
2017-09-19T17:40:41.096Z,78.42
2017-09-19T17:43:08.090Z,81.12
2017-09-19T17:45:34.974Z,79.58
2017-09-19T17:48:02.104Z,79.00
2017-09-19T17:50:28.944Z,76.18
2017-09-19T17:52:55.835Z,75.20
2017-09-19T17:55:22.989Z,75.61
2017-09-19T17:57:50.607Z,77.39
2017-09-19T18:00:17.521Z,77.84
2017-09-19T18:02:44.407Z,76.92
2017-09-19T18:05:11.271Z,77.79
2017-09-19T18:07:38.157Z,80.98
2017-09-19T18:10:05.001Z,82.78
2017-09-19T18:12:31.846Z,78.32
2017-09-19T18:14:58.701Z,80.58
2017-09-19T18:17:25.590Z,81.83
2017-09-19T18:19:52.501Z,78.18
2017-09-19T18:22:19.348Z,77.18
2017-09-19T18:24:46.974Z,76.94
2017-09-19T18:27:13.951Z,80.29
2017-09-19T18:29:40.853Z,82.29
2017-09-19T18:32:08.444Z,82.35
2017-09-19T18:34:35.345Z,82.23
2017-09-19T18:37:02.202Z,84.98
2017-09-19T18:39:29.252Z,81.38
2017-09-19T18:41:56.153Z,78.38
2017-09-19T18:44:23.246Z,78.11
2017-09-19T18:46:50.324Z,77.69
2017-09-19T18:49:17.212Z,79.63
2017-09-19T18:51:44.556Z,80.18
2017-09-19T18:54:11.603Z,82.36
2017-09-19T18:56:40.919Z,80.69
2017-09-19T18:59:09.687Z,80.92
2017-09-19T19:01:39.242Z,83.07
2017-09-19T19:04:07.833Z,80.73
2017-09-19T19:06:35.193Z,79.37
2017-09-19T19:09:02.076Z,79.87
2017-09-19T19:11:29.187Z,81.68
2017-09-19T19:13:56.277Z,80.34
2017-09-19T19:16:24.227Z,83.54
2017-09-19T19:18:51.264Z,85.30
2017-09-19T19:21:18.921Z,86.31
2017-09-19T19:23:46.353Z,86.13
2017-09-19T19:26:14.563Z,86.87
2017-09-19T19:28:42.548Z,86.01
2017-09-19T19:31:11.436Z,85.66
2017-09-19T19:33:39.139Z,84.22
2017-09-19T19:36:06.589Z,81.46
2017-09-19T19:38:33.562Z,79.75
2017-09-19T19:41:00.478Z,79.71
2017-09-19T19:43:27.428Z,80.09
2017-09-19T19:45:54.332Z,81.21
2017-09-19T19:48:21.951Z,84.89
2017-09-19T19:50:49.168Z,86.42
2017-09-19T19:53:16.309Z,86.22
2017-09-19T19:55:43.189Z,85.01
2017-09-19T19:58:10.220Z,84.79
2017-09-19T20:00:37.087Z,84.19
2017-09-19T20:03:04.599Z,84.14
2017-09-19T20:05:32.282Z,84.71
2017-09-19T20:08:00.676Z,84.20
2017-09-19T20:10:28.468Z,84.17
2017-09-19T20:12:56.442Z,82.50
2017-09-19T20:15:23.308Z,82.20
2017-09-19T20:17:50.131Z,83.43
2017-09-19T20:20:16.981Z,84.71
2017-09-19T20:22:43.783Z,83.85
2017-09-19T20:25:11.660Z,82.26
2017-09-19T20:27:38.598Z,80.36
2017-09-19T20:30:05.479Z,80.05
2017-09-19T20:32:32.452Z,80.35
2017-09-19T20:34:59.426Z,80.20
2017-09-19T20:37:26.474Z,80.41
2017-09-19T20:39:53.328Z,82.66
2017-09-19T20:42:22.487Z,85.03
2017-09-19T20:44:49.375Z,82.25
2017-09-19T20:47:16.239Z,85.21
2017-09-19T20:49:43.071Z,85.78
2017-09-19T20:52:10.717Z,84.12
2017-09-19T20:54:37.607Z,85.33
2017-09-19T20:57:05.268Z,82.77
2017-09-19T20:59:32.272Z,82.65
2017-09-19T21:01:59.244Z,82.93
2017-09-19T21:04:32.322Z,81.48
2017-09-19T21:07:05.863Z,81.14
2017-09-19T21:09:39.304Z,81.71
2017-09-19T21:12:12.240Z,80.88
2017-09-19T21:14:45.188Z,80.65
2017-09-19T21:17:18.201Z,80.40
2017-09-19T21:19:44.978Z,81.10
2017-09-19T21:22:12.980Z,80.73
2017-09-19T21:24:39.945Z,80.61
2017-09-19T21:27:06.877Z,80.32
2017-09-19T21:29:33.742Z,80.61
2017-09-19T21:32:00.678Z,81.22
2017-09-19T21:34:27.611Z,81.02
2017-09-19T21:36:55.232Z,80.76
2017-09-19T21:39:22.159Z,80.75
2017-09-19T21:41:49.135Z,81.35
2017-09-19T21:44:15.968Z,82.49
2017-09-19T21:46:42.907Z,85.88
2017-09-19T21:49:09.807Z,86.42
2017-09-19T21:51:37.415Z,84.52
2017-09-19T21:54:05.060Z,84.25
2017-09-19T21:56:32.645Z,86.25
2017-09-19T21:59:00.340Z,85.07
2017-09-19T22:01:27.199Z,83.15
2017-09-19T22:03:54.726Z,81.97
2017-09-19T22:06:22.330Z,83.42
2017-09-19T22:08:49.218Z,83.40
2017-09-19T22:11:16.211Z,81.53
2017-09-19T22:13:43.519Z,81.19
2017-09-19T22:16:12.318Z,80.91
2017-09-19T22:18:40.556Z,80.79
2017-09-19T22:21:08.235Z,80.93
2017-09-19T22:23:35.865Z,80.63
2017-09-19T22:26:02.789Z,80.55
2017-09-19T22:28:30.375Z,80.69
2017-09-19T22:30:58.122Z,80.65
2017-09-19T22:33:26.623Z,80.17
2017-09-19T22:35:54.579Z,80.32
2017-09-19T22:38:23.082Z,82.16
2017-09-19T22:40:50.768Z,81.21
2017-09-19T22:43:18.582Z,81.34
2017-09-19T22:45:46.501Z,83.25
2017-09-19T22:48:14.344Z,84.46
2017-09-19T22:50:41.938Z,82.65
2017-09-19T22:53:08.788Z,81.33
2017-09-19T22:55:36.401Z,81.43
2017-09-19T22:58:03.211Z,81.35
2017-09-19T23:00:30.078Z,82.71
2017-09-19T23:02:57.677Z,85.28
2017-09-19T23:05:24.506Z,86.97
2017-09-19T23:07:51.371Z,84.07
2017-09-19T23:10:18.240Z,83.76
2017-09-19T23:12:45.826Z,84.88
2017-09-19T23:15:13.390Z,86.36
2017-09-19T23:17:40.956Z,83.71
2017-09-19T23:20:07.799Z,82.82
2017-09-19T23:22:34.631Z,81.80
2017-09-19T23:25:01.488Z,85.09
2017-09-19T23:27:28.384Z,85.36
2017-09-19T23:29:55.226Z,87.41
2017-09-19T23:32:22.132Z,86.28
2017-09-19T23:34:48.953Z,86.87
2017-09-19T23:37:15.784Z,85.26
2017-09-19T23:39:42.600Z,83.00
2017-09-19T23:42:09.458Z,85.27
2017-09-19T23:44:36.290Z,86.95
2017-09-19T23:47:03.111Z,85.15
2017-09-19T23:49:29.967Z,83.16
2017-09-19T23:51:57.554Z,84.77
2017-09-19T23:54:25.139Z,84.51
2017-09-19T23:56:52.001Z,82.42
2017-09-19T23:59:18.947Z,81.95
